Time;durP1;ratioP1;P1;durP2;ratioP2;P2;SDS_P1;SDS_P2;PMS_P1;PMS_P2;Temp;Humidity;BMP_temperature;BMP_pressure;BME280_temperature;BME280_humidity;BME280_pressure;Samples;Min_cycle;Max_cycle;Signal;HPM_P1;HPM_P2
2022/06/15 00:01:28;;;;;;;6.95;4.18;;;11.20;99.90;;;;;;5035935;28;20059;-80
2022/06/15 00:03:55;;;;;;;5.72;3.13;;;11.20;99.90;;;;;;5036312;28;20047;-80
2022/06/15 00:06:26;;;;;;;4.20;2.40;;;11.30;99.90;;;;;;5036047;28;20045;-80
2022/06/15 00:08:55;;;;;;;4.03;2.42;;;11.10;99.90;;;;;;5035864;28;20060;-81
2022/06/15 00:11:30;;;;;;;5.88;3.13;;;11.20;99.90;;;;;;5036135;28;20044;-80
2022/06/15 00:13:58;;;;;;;6.43;3.17;;;11.00;99.90;;;;;;5053662;28;20049;-80
2022/06/15 00:16:25;;;;;;;8.13;3.20;;;11.00;99.90;;;;;;5053248;28;20064;-79
2022/06/15 00:18:51;;;;;;;5.18;3.17;;;11.00;99.90;;;;;;5053913;28;20126;-80
2022/06/15 00:21:18;;;;;;;7.15;3.40;;;10.90;99.90;;;;;;5053897;28;20049;-80
2022/06/15 00:23:44;;;;;;;5.03;3.50;;;11.20;99.90;;;;;;5035554;28;20052;-80
2022/06/15 00:26:11;;;;;;;4.78;3.28;;;11.30;99.90;;;;;;5053394;28;20127;-80
2022/06/15 00:28:37;;;;;;;10.35;4.18;;;11.40;99.90;;;;;;5053428;28;20119;-80
2022/06/15 00:31:03;;;;;;;8.20;4.22;;;10.90;99.90;;;;;;5053279;28;20076;-80
2022/06/15 00:33:29;;;;;;;6.13;3.70;;;10.90;99.90;;;;;;5053054;28;20037;-80
2022/06/15 00:36:01;;;;;;;8.00;4.38;;;10.80;99.90;;;;;;5053264;28;20040;-79
2022/06/15 00:38:32;;;;;;;8.35;4.50;;;10.80;99.90;;;;;;5053127;28;20439;-80
2022/06/15 00:40:58;;;;;;;7.28;4.30;;;10.80;99.90;;;;;;5052914;28;20510;-80
2022/06/15 00:43:43;;;;;;;5.63;4.03;;;10.80;99.90;;;;;;5053007;28;20571;-80
2022/06/15 00:46:27;;;;;;;8.95;4.32;;;10.80;99.90;;;;;;5035191;28;20522;-80
2022/06/15 00:48:59;;;;;;;6.75;3.78;;;10.70;99.90;;;;;;5034727;28;20064;-79
2022/06/15 00:51:27;;;;;;;6.32;4.05;;;10.70;99.90;;;;;;5053030;28;20041;-80
2022/06/15 00:53:55;;;;;;;7.15;3.78;;;10.70;99.90;;;;;;5034723;28;20092;-79
2022/06/15 00:56:24;;;;;;;6.68;4.53;;;10.70;99.90;;;;;;5034794;28;20052;-79
2022/06/15 00:58:52;;;;;;;7.32;5.03;;;10.70;99.90;;;;;;5034830;28;20488;-79
2022/06/15 01:01:18;;;;;;;8.52;4.72;;;10.60;99.90;;;;;;5052883;28;20049;-79
2022/06/15 01:03:49;;;;;;;11.95;5.43;;;10.60;99.90;;;;;;5052455;28;20129;-80
2022/06/15 01:06:44;;;;;;;7.80;4.60;;;10.60;99.90;;;;;;5052329;28;20147;-80
2022/06/15 01:09:27;;;;;;;9.32;4.60;;;10.60;99.90;;;;;;5052468;28;20109;-79
2022/06/15 01:12:12;;;;;;;8.52;5.20;;;10.60;99.90;;;;;;5034891;28;20128;-79
2022/06/15 01:14:44;;;;;;;12.25;5.13;;;10.60;99.90;;;;;;5052623;28;20041;-80
2022/06/15 01:17:34;;;;;;;10.98;4.85;;;10.60;99.90;;;;;;5034708;28;20060;-80
2022/06/15 01:20:28;;;;;;;7.80;4.70;;;10.50;99.90;;;;;;5052257;28;20404;-80
2022/06/15 01:23:18;;;;;;;7.38;4.35;;;10.50;99.90;;;;;;5052024;28;20508;-79
2022/06/15 01:26:12;;;;;;;5.80;3.83;;;10.50;99.90;;;;;;5034077;28;20049;-80
2022/06/15 01:28:52;;;;;;;10.52;4.30;;;10.50;99.90;;;;;;5052354;28;20132;-80
2022/06/15 01:31:24;;;;;;;8.35;4.53;;;10.50;99.90;;;;;;5034488;28;20455;-80
2022/06/15 01:34:07;;;;;;;7.18;4.18;;;10.50;99.90;;;;;;5033960;28;20128;-79
2022/06/15 01:36:39;;;;;;;6.05;3.90;;;10.40;99.90;;;;;;5034217;28;20439;-80
2022/06/15 01:39:21;;;;;;;5.78;4.28;;;10.40;99.90;;;;;;5033974;28;20052;-80
2022/06/15 01:41:57;;;;;;;6.65;4.07;;;10.40;99.90;;;;;;5033963;28;20053;-79
2022/06/15 01:44:29;;;;;;;8.55;3.75;;;10.30;99.90;;;;;;5034152;28;20451;-80
2022/06/15 01:46:56;;;;;;;4.80;3.50;;;10.30;99.90;;;;;;5033557;28;20068;-80
2022/06/15 01:49:36;;;;;;;6.93;4.15;;;10.20;99.90;;;;;;5016962;28;20045;-80
2022/06/15 01:52:04;;;;;;;7.70;3.35;;;10.20;99.90;;;;;;5033871;28;20067;-79
2022/06/15 01:54:48;;;;;;;8.80;3.10;;;10.10;99.90;;;;;;5033792;28;20064;-79
2022/06/15 01:57:16;;;;;;;6.55;3.53;;;10.00;99.90;;;;;;5033440;28;20052;-79
2022/06/15 02:00:04;;;;;;;8.35;3.63;;;9.90;99.90;;;;;;5051623;28;20068;-80
2022/06/15 02:02:55;;;;;;;7.35;3.85;;;9.90;99.90;;;;;;5051566;28;20123;-79
2022/06/15 02:05:51;;;;;;;7.97;3.67;;;9.80;99.90;;;;;;5051051;28;20048;-79
2022/06/15 02:08:47;;;;;;;5.93;3.88;;;9.80;99.90;;;;;;5051687;28;20051;-79
2022/06/15 02:11:18;;;;;;;4.72;2.80;;;9.70;99.90;;;;;;5033592;28;20099;-79
2022/06/15 02:13:50;;;;;;;4.63;2.22;;;9.70;99.90;;;;;;5051651;28;20440;-79
2022/06/15 02:16:41;;;;;;;4.07;2.88;;;9.70;99.90;;;;;;5033626;28;20127;-79
2022/06/15 02:19:11;;;;;;;5.15;3.20;;;9.70;99.90;;;;;;5033524;28;20052;-80
2022/06/15 02:21:39;;;;;;;4.60;2.80;;;9.70;99.90;;;;;;5051102;28;20763;-79
2022/06/15 02:24:06;;;;;;;4.57;2.90;;;10.30;99.90;;;;;;5033388;28;20558;-80
2022/06/15 02:26:35;;;;;;;6.22;3.70;;;9.70;99.90;;;;;;5033286;28;20123;-78
2022/06/15 02:29:18;;;;;;;7.40;4.90;;;9.60;99.90;;;;;;5051429;28;20045;-81
2022/06/15 02:31:44;;;;;;;8.82;4.25;;;9.70;99.90;;;;;;5051248;28;20056;-81
2022/06/15 02:34:11;;;;;;;6.78;4.00;;;9.60;99.90;;;;;;5051347;28;20037;-79
2022/06/15 02:36:37;;;;;;;6.07;3.78;;;9.60;99.90;;;;;;5033153;28;20135;-79
2022/06/15 02:39:07;;;;;;;8.50;4.60;;;9.60;99.90;;;;;;5051003;28;20049;-79
2022/06/15 02:41:33;;;;;;;6.38;3.92;;;9.60;99.90;;;;;;5050833;28;20064;-80
2022/06/15 02:44:01;;;;;;;6.05;3.75;;;9.70;99.90;;;;;;5032862;28;20135;-79
2022/06/15 02:46:29;;;;;;;7.25;3.95;;;9.50;99.90;;;;;;5050512;28;20053;-78
2022/06/15 02:48:56;;;;;;;9.25;3.72;;;9.50;99.90;;;;;;5050761;28;20103;-79
2022/06/15 02:51:47;;;;;;;6.07;3.78;;;9.50;99.90;;;;;;5032449;28;20047;-80
2022/06/15 02:54:38;;;;;;;5.93;3.70;;;9.40;99.90;;;;;;5050638;28;20454;-79
2022/06/15 02:57:04;;;;;;;7.03;3.83;;;9.40;99.90;;;;;;5050769;28;20044;-80
2022/06/15 02:59:30;;;;;;;7.43;4.15;;;9.40;99.90;;;;;;5049796;28;20373;-80
2022/06/15 03:01:57;;;;;;;6.10;4.28;;;9.40;99.90;;;;;;5032665;28;20124;-79
2022/06/15 03:04:22;;;;;;;7.32;4.25;;;9.40;99.90;;;;;;5050433;28;20049;-80
2022/06/15 03:06:48;;;;;;;7.57;4.07;;;9.40;99.90;;;;;;5050082;28;20052;-80
2022/06/15 03:09:13;;;;;;;9.38;4.38;;;9.30;99.90;;;;;;5050638;28;20492;-80
2022/06/15 03:11:40;;;;;;;6.35;3.72;;;9.40;99.90;;;;;;5032542;28;20511;-79
2022/06/15 03:14:06;;;;;;;7.50;4.25;;;9.30;99.90;;;;;;5032143;28;20053;-80
2022/06/15 03:16:32;;;;;;;9.32;5.18;;;9.40;99.90;;;;;;5015474;28;20128;-80
2022/06/15 03:18:58;;;;;;;7.90;5.13;;;9.40;99.90;;;;;;5032755;28;20128;-79
2022/06/15 03:21:23;;;;;;;8.25;4.85;;;9.50;99.90;;;;;;5015664;28;20057;-80
2022/06/15 03:23:49;;;;;;;10.27;4.80;;;9.40;99.90;;;;;;5032671;28;20045;-81
2022/06/15 03:26:15;;;;;;;8.10;4.70;;;9.50;99.90;;;;;;5050361;28;20049;-81
2022/06/15 03:28:40;;;;;;;10.00;4.72;;;9.50;99.90;;;;;;5050184;28;20412;-80
2022/06/15 03:31:07;;;;;;;6.22;3.97;;;9.60;99.90;;;;;;5050279;28;20053;-80
2022/06/15 03:33:32;;;;;;;12.52;4.05;;;9.50;99.90;;;;;;5050222;28;20124;-80
2022/06/15 03:35:58;;;;;;;5.57;3.95;;;9.50;99.90;;;;;;5050149;28;20473;-80
2022/06/15 03:38:25;;;;;;;6.72;4.13;;;9.90;99.90;;;;;;5050103;28;20036;-79
2022/06/15 03:40:50;;;;;;;8.57;4.25;;;9.60;99.90;;;;;;5050411;28;20385;-81
2022/06/15 03:43:18;;;;;;;6.00;3.75;;;9.70;99.90;;;;;;5032355;28;20103;-81
2022/06/15 03:45:44;;;;;;;6.65;4.22;;;9.70;99.90;;;;;;5050129;28;20047;-81
2022/06/15 03:48:11;;;;;;;10.32;4.93;;;9.70;99.90;;;;;;5050055;28;20140;-80
2022/06/15 03:50:37;;;;;;;8.60;3.78;;;9.80;99.90;;;;;;5050032;28;20056;-80
2022/06/15 03:53:04;;;;;;;9.65;4.20;;;9.80;99.90;;;;;;5031788;28;20045;-80
2022/06/15 03:55:31;;;;;;;8.40;3.95;;;9.80;99.90;;;;;;5049994;28;20049;-80
2022/06/15 03:57:58;;;;;;;7.75;4.68;;;9.80;99.90;;;;;;5049964;28;20488;-80
2022/06/15 04:00:25;;;;;;;8.20;4.95;;;9.90;99.90;;;;;;5050042;28;20041;-80
2022/06/15 04:02:54;;;;;;;6.78;4.53;;;9.90;99.90;;;;;;5015637;28;20061;-80
2022/06/15 04:05:39;;;;;;;15.48;5.13;;;10.00;99.90;;;;;;5050292;28;20087;-80
2022/06/15 04:10:49;;;;;;;9.98;5.22;;;10.10;99.90;;;;;;5033840;28;20500;-80
2022/06/15 04:13:15;;;;;;;8.23;5.68;;;10.20;99.90;;;;;;5035519;28;20079;-80
2022/06/15 04:15:42;;;;;;;9.07;5.43;;;10.30;99.90;;;;;;5035303;28;20064;-80
2022/06/15 04:18:08;;;;;;;12.52;6.50;;;10.30;99.90;;;;;;5053520;28;20052;-79
2022/06/15 04:20:33;;;;;;;8.38;4.93;;;10.70;99.90;;;;;;5053680;28;20049;-80
2022/06/15 04:23:09;;;;;;;9.93;4.70;;;10.70;99.90;;;;;;5053368;28;20051;-80
2022/06/15 04:25:39;;;;;;;13.77;5.65;;;10.50;99.90;;;;;;5053282;28;20056;-80
2022/06/15 04:28:06;;;;;;;8.27;5.10;;;10.60;99.90;;;;;;5035417;28;20044;-80
2022/06/15 04:30:32;;;;;;;13.85;6.00;;;10.80;99.90;;;;;;5018956;28;20160;-80
2022/06/15 04:32:58;;;;;;;10.82;4.95;;;10.90;99.90;;;;;;5053505;28;20507;-80
2022/06/15 04:35:24;;;;;;;13.98;4.75;;;11.10;99.90;;;;;;5053716;28;20128;-80
2022/06/15 04:37:50;;;;;;;11.40;5.00;;;11.30;99.90;;;;;;5035363;28;20124;-80
2022/06/15 04:40:15;;;;;;;11.07;5.30;;;11.80;99.90;;;;;;5053044;28;20109;-80
2022/06/15 04:42:44;;;;;;;10.52;4.28;;;11.40;99.90;;;;;;5053172;28;20045;-80
2022/06/15 04:45:12;;;;;;;14.63;4.50;;;11.50;99.90;;;;;;5035254;28;20048;-80
2022/06/15 04:47:38;;;;;;;11.80;5.85;;;11.70;99.90;;;;;;5052764;28;20072;-79
2022/06/15 04:50:06;;;;;;;10.52;4.85;;;11.80;99.90;;;;;;5034973;28;20053;-79
2022/06/15 04:52:32;;;;;;;11.93;5.63;;;11.80;99.90;;;;;;5034814;28;20496;-80
2022/06/15 04:54:58;;;;;;;12.50;6.20;;;11.90;99.90;;;;;;5052567;28;20059;-79
2022/06/15 04:57:23;;;;;;;11.88;6.45;;;12.00;99.90;;;;;;5052636;28;20049;-80
2022/06/15 04:59:49;;;;;;;9.00;5.43;;;12.00;99.90;;;;;;5052954;28;20151;-80
2022/06/15 05:02:15;;;;;;;10.73;5.60;;;12.10;99.90;;;;;;5052959;28;20045;-80
2022/06/15 05:04:41;;;;;;;9.07;5.35;;;12.20;99.90;;;;;;5035111;28;20164;-81
2022/06/15 05:07:07;;;;;;;12.40;5.35;;;12.30;99.90;;;;;;5052749;28;20072;-81
2022/06/15 05:09:33;;;;;;;9.25;5.38;;;12.60;99.90;;;;;;5052335;28;20534;-80
2022/06/15 05:11:59;;;;;;;10.68;5.82;;;12.90;99.90;;;;;;5052562;28;20044;-81
2022/06/15 05:14:25;;;;;;;10.90;6.03;;;12.60;99.90;;;;;;5052584;28;20515;-81
2022/06/15 05:16:50;;;;;;;11.98;5.50;;;12.90;99.90;;;;;;5052250;28;20059;-80
2022/06/15 05:19:16;;;;;;;12.88;6.25;;;12.70;99.90;;;;;;5052495;28;20040;-81
2022/06/15 05:21:44;;;;;;;10.30;6.82;;;12.80;99.90;;;;;;5033532;28;20817;-80
2022/06/15 05:24:10;;;;;;;11.45;6.38;;;12.90;99.90;;;;;;5033991;28;20146;-81
2022/06/15 05:26:36;;;;;;;12.38;5.78;;;13.00;99.90;;;;;;5034021;28;20484;-80
2022/06/15 05:29:02;;;;;;;11.77;6.32;;;13.40;99.90;;;;;;5052263;28;20047;-81
2022/06/15 05:31:28;;;;;;;8.50;5.25;;;13.50;99.90;;;;;;5034430;28;20439;-80
2022/06/15 05:33:55;;;;;;;13.02;6.20;;;13.20;99.90;;;;;;5034370;28;20059;-80
2022/06/15 05:36:25;;;;;;;12.77;5.80;;;13.80;99.90;;;;;;5034255;28;20052;-81
2022/06/15 05:38:51;;;;;;;13.23;5.50;;;13.50;99.90;;;;;;5052015;28;20051;-82
2022/06/15 05:41:16;;;;;;;11.68;6.25;;;13.50;99.90;;;;;;5051633;28;20044;-81
2022/06/15 05:43:47;;;;;;;11.57;5.68;;;13.60;99.90;;;;;;5034155;28;20044;-82
2022/06/15 05:46:26;;;;;;;9.85;5.45;;;13.80;99.90;;;;;;5051801;28;20049;-81
2022/06/15 05:48:54;;;;;;;9.63;5.25;;;13.90;99.90;;;;;;5033834;28;20052;-82
2022/06/15 05:51:19;;;;;;;10.15;5.63;;;14.00;99.90;;;;;;5033739;28;20056;-82
2022/06/15 05:53:45;;;;;;;11.02;5.43;;;14.10;99.90;;;;;;5051804;28;20051;-82
2022/06/15 05:56:11;;;;;;;10.15;4.80;;;14.20;99.90;;;;;;5051642;28;20052;-81
2022/06/15 05:58:36;;;;;;;10.10;5.30;;;14.40;99.90;;;;;;5033935;28;20476;-82
2022/06/15 06:01:28;;;;;;;12.57;4.30;;;14.30;99.90;;;;;;5051559;28;20693;-82
2022/06/15 06:03:54;;;;;;;11.20;4.45;;;14.60;99.90;;;;;;5051587;28;20040;-80
2022/06/15 06:06:20;;;;;;;11.32;5.15;;;14.80;99.90;;;;;;5033439;28;20045;-81
2022/06/15 06:08:46;;;;;;;10.57;4.47;;;14.90;99.90;;;;;;5051503;28;20465;-82
2022/06/15 06:11:13;;;;;;;10.85;4.38;;;15.10;99.90;;;;;;5016997;28;20048;-81
2022/06/15 06:13:38;;;;;;;11.20;4.20;;;15.20;99.90;;;;;;5033145;28;20044;-82
2022/06/15 06:16:05;;;;;;;11.40;4.63;;;15.30;99.90;;;;;;5051294;28;20094;-82
2022/06/15 06:18:30;;;;;;;8.32;4.18;;;15.40;99.90;;;;;;5051312;28;20098;-82
2022/06/15 06:20:56;;;;;;;9.18;4.10;;;15.60;99.90;;;;;;5033234;28;20443;-81
2022/06/15 06:23:22;;;;;;;10.48;4.28;;;16.30;99.90;;;;;;5051260;28;20053;-80
2022/06/15 06:25:54;;;;;;;11.50;3.95;;;16.30;99.90;;;;;;5051147;28;20060;-83
2022/06/15 06:28:33;;;;;;;14.57;4.25;;;16.20;99.90;;;;;;5032928;28;20084;-83
2022/06/15 06:31:01;;;;;;;12.30;3.67;;;16.40;99.90;;;;;;5051047;28;20136;-83
2022/06/15 06:33:28;;;;;;;9.30;4.25;;;16.50;99.90;;;;;;5051070;28;20041;-82
2022/06/15 06:35:55;;;;;;;8.90;3.78;;;16.60;99.90;;;;;;5016528;28;20048;-81
2022/06/15 06:38:21;;;;;;;10.65;3.63;;;16.70;99.90;;;;;;5032993;28;20064;-84
2022/06/15 06:40:53;;;;;;;8.93;3.78;;;16.80;99.90;;;;;;5033131;28;20053;-84
2022/06/15 06:43:19;;;;;;;10.35;3.83;;;17.40;99.90;;;;;;5032929;28;20044;-83
2022/06/15 06:45:45;;;;;;;11.68;4.18;;;17.40;99.90;;;;;;5050813;28;20045;-84
2022/06/15 06:48:11;;;;;;;9.57;3.42;;;17.60;99.90;;;;;;5050502;28;20060;-83
2022/06/15 06:50:39;;;;;;;13.30;3.40;;;17.70;99.90;;;;;;5050756;28;20098;-83
2022/06/15 06:53:05;;;;;;;9.18;3.25;;;18.00;99.90;;;;;;5050645;28;20041;-84
2022/06/15 06:55:30;;;;;;;8.43;3.30;;;18.20;99.90;;;;;;5016390;28;20049;-86
2022/06/15 06:57:57;;;;;;;9.18;3.47;;;18.50;99.90;;;;;;5050807;28;20043;-84
2022/06/15 07:00:24;;;;;;;8.55;3.17;;;18.70;99.90;;;;;;5033008;28;20196;-81
2022/06/15 07:02:52;;;;;;;12.02;2.42;;;18.90;99.90;;;;;;5050689;28;20044;-84
2022/06/15 07:05:18;;;;;;;12.15;2.20;;;19.30;99.90;;;;;;5050574;28;20045;-85
2022/06/15 07:07:44;;;;;;;7.80;2.17;;;19.60;99.90;;;;;;5032695;28;20052;-82
2022/06/15 07:10:11;;;;;;;7.78;2.00;;;19.90;99.90;;;;;;5050378;28;20033;-83
2022/06/15 07:12:42;;;;;;;8.52;1.80;;;19.90;99.90;;;;;;5050519;28;20044;-81
2022/06/15 07:15:09;;;;;;;12.10;1.48;;;20.00;99.90;;;;;;5032143;28;20055;-84
2022/06/15 07:17:35;;;;;;;7.03;2.20;;;20.30;99.90;;;;;;5050364;28;20041;-84
2022/06/15 07:20:02;;;;;;;8.10;2.03;;;20.50;99.90;;;;;;5050321;28;20044;-86
2022/06/15 07:22:27;;;;;;;8.15;2.15;;;20.40;99.90;;;;;;5050546;28;20091;-82
2022/06/15 07:24:53;;;;;;;8.52;1.70;;;20.60;99.90;;;;;;5050141;28;20049;-84
2022/06/15 07:27:21;;;;;;;4.68;1.35;;;20.60;99.90;;;;;;5032706;28;20127;-85
2022/06/15 07:29:47;;;;;;;6.47;1.73;;;20.70;99.90;;;;;;5032119;28;20049;-85
2022/06/15 07:32:15;;;;;;;7.43;1.60;;;20.70;99.90;;;;;;5032526;28;20393;-84
2022/06/15 07:34:41;;;;;;;8.38;1.73;;;20.80;99.90;;;;;;5032640;28;20033;-81
2022/06/15 07:37:07;;;;;;;6.53;1.80;;;20.70;99.90;;;;;;5032599;28;20124;-83
2022/06/15 07:39:34;;;;;;;6.32;2.08;;;20.70;99.90;;;;;;5032469;28;20131;-82
2022/06/15 07:42:00;;;;;;;9.05;2.13;;;20.80;99.90;;;;;;5032050;28;20495;-83
2022/06/15 07:44:27;;;;;;;6.85;1.90;;;20.80;99.90;;;;;;5031759;28;20098;-80
2022/06/15 07:49:56;;;;;;;;;;;20.50;99.90;;;;;;5054553;28;20044;-81
2022/06/15 07:52:30;;;;;;;9.25;2.83;;;20.40;99.90;;;;;;5054019;28;19917;-79
2022/06/15 07:54:57;;;;;;;10.00;2.75;;;20.50;99.90;;;;;;5053946;28;20377;-79
2022/06/15 07:57:23;;;;;;;4.68;1.83;;;20.50;99.90;;;;;;5036299;28;20075;-82
2022/06/15 07:59:49;;;;;;;7.25;2.40;;;20.50;99.90;;;;;;5036113;28;20053;-82
2022/06/15 08:02:15;;;;;;;8.20;2.85;;;20.50;99.90;;;;;;5054105;28;20427;-82
2022/06/15 08:04:41;;;;;;;9.02;2.20;;;20.50;99.90;;;;;;5035833;28;20049;-82
2022/06/15 08:07:09;;;;;;;11.73;2.00;;;20.40;99.90;;;;;;5053594;28;20063;-82
2022/06/15 08:09:35;;;;;;;13.95;3.20;;;20.40;99.90;;;;;;5019030;28;20083;-79
2022/06/15 08:12:14;;;;;;;10.27;3.42;;;20.60;99.90;;;;;;5053800;28;20109;-83
2022/06/15 08:15:01;;;;;;;9.30;2.20;;;20.50;99.90;;;;;;5035648;28;20052;-83
2022/06/15 08:17:39;;;;;;;6.72;1.42;;;20.60;99.90;;;;;;5035289;28;20045;-82
2022/06/15 08:20:15;;;;;;;6.57;1.80;;;20.80;99.90;;;;;;5053694;28;20130;-78
2022/06/15 08:22:44;;;;;;;7.25;1.77;;;21.10;99.90;;;;;;5053401;28;20060;-78
2022/06/15 08:25:15;;;;;;;15.25;3.90;;;21.30;99.90;;;;;;5053422;28;20055;-81
2022/06/15 08:27:41;;;;;;;7.78;2.50;;;21.20;99.90;;;;;;5053506;28;20397;-84
2022/06/15 08:30:10;;;;;;;5.88;1.77;;;21.30;99.90;;;;;;5018849;28;20091;-81
2022/06/15 08:32:36;;;;;;;10.68;3.03;;;21.40;99.90;;;;;;5017800;28;20052;-82
2022/06/15 08:35:03;;;;;;;9.25;2.70;;;21.40;99.90;;;;;;5035592;28;20447;-81
2022/06/15 08:37:29;;;;;;;9.77;2.08;;;21.80;99.90;;;;;;5053010;28;20481;-81
2022/06/15 08:39:55;;;;;;;6.07;1.85;;;21.90;99.90;;;;;;5018755;28;20049;-81
2022/06/15 08:42:55;;;;;;;5.72;1.90;;;22.00;99.90;;;;;;5053148;28;20053;-85
2022/06/15 08:45:39;;;;;;;6.30;1.67;;;22.20;99.90;;;;;;5052855;28;20637;-83
2022/06/15 08:48:14;;;;;;;5.35;1.88;;;22.40;99.90;;;;;;5034960;28;20049;-83
2022/06/15 08:51:03;;;;;;;6.68;1.67;;;22.50;99.90;;;;;;5034989;28;20130;-83
2022/06/15 08:53:57;;;;;;;7.03;2.15;;;22.60;99.90;;;;;;5052907;28;20098;-81
2022/06/15 08:56:30;;;;;;;9.65;1.50;;;22.80;99.90;;;;;;5051751;28;20048;-83
2022/06/15 08:59:07;;;;;;;5.97;1.63;;;23.00;99.90;;;;;;5034863;28;20045;-79
2022/06/15 09:01:45;;;;;;;9.15;1.88;;;23.10;99.90;;;;;;5052556;28;20051;-83
2022/06/15 09:04:13;;;;;;;10.07;2.38;;;23.20;99.90;;;;;;5034845;28;20037;-81
2022/06/15 09:07:06;;;;;;;10.05;1.80;;;23.40;99.90;;;;;;5052394;28;20523;-81
2022/06/15 09:10:09;;;;;;;3.92;1.40;;;23.60;99.90;;;;;;5052664;28;20496;-81
2022/06/15 09:12:49;;;;;;;5.43;1.55;;;23.70;99.90;;;;;;5034782;28;20052;-81
2022/06/15 09:15:42;;;;;;;4.15;1.30;;;23.90;99.90;;;;;;5052763;28;20044;-83
2022/06/15 09:18:15;;;;;;;5.78;1.58;;;24.10;99.90;;;;;;5052423;28;20381;-83
2022/06/15 09:20:48;;;;;;;6.20;1.48;;;24.30;99.90;;;;;;5018018;28;20059;-80
2022/06/15 09:23:28;;;;;;;6.67;1.97;;;24.30;99.90;;;;;;5018436;28;20510;-79
2022/06/15 09:26:03;;;;;;;5.43;1.65;;;24.60;99.50;;;;;;5052256;28;20499;-77
2022/06/15 09:28:49;;;;;;;4.78;1.40;;;24.70;98.70;;;;;;5052193;28;20045;-81
2022/06/15 09:31:22;;;;;;;6.22;1.70;;;24.70;99.50;;;;;;5033814;28;20057;-82
2022/06/15 09:34:00;;;;;;;5.68;1.33;;;24.90;97.90;;;;;;5033923;28;20053;-82
2022/06/15 09:36:40;;;;;;;7.53;1.83;;;25.00;97.90;;;;;;5052206;28;20063;-82
2022/06/15 09:39:05;;;;;;;5.90;1.30;;;25.30;98.00;;;;;;5034135;28;20037;-83
2022/06/15 09:41:49;;;;;;;5.18;1.42;;;25.30;98.10;;;;;;5034133;28;20549;-79
2022/06/15 09:44:29;;;;;;;6.25;1.90;;;25.30;98.00;;;;;;5052207;28;20040;-82
2022/06/15 09:47:15;;;;;;;7.90;2.00;;;25.50;99.30;;;;;;5051326;28;20140;-81
2022/06/15 09:49:56;;;;;;;10.07;1.70;;;25.20;97.80;;;;;;5016634;28;20063;-83
2022/06/15 09:52:31;;;;;;;6.05;1.77;;;25.00;98.10;;;;;;5033858;28;20045;-81
2022/06/15 09:55:32;;;;;;;6.90;2.08;;;24.70;97.90;;;;;;5051972;28;20049;-84
2022/06/15 09:57:59;;;;;;;7.07;1.92;;;24.50;98.20;;;;;;4990158;28;20062;-81
2022/06/15 10:00:25;;;;;;;7.60;2.00;;;24.50;98.40;;;;;;4957675;28;20432;-81
2022/06/15 10:03:03;;;;;;;6.15;1.55;;;24.00;98.10;;;;;;4989935;28;20122;-89
2022/06/15 10:05:39;;;;;;;5.95;1.80;;;23.90;98.50;;;;;;4990105;28;20055;-82
2022/06/15 10:08:10;;;;;;;7.20;1.88;;;23.50;97.00;;;;;;4989609;28;20536;-84
2022/06/15 10:10:55;;;;;;;6.22;2.20;;;23.20;98.20;;;;;;4990086;28;20038;-81
2022/06/15 10:13:21;;;;;;;7.95;2.38;;;23.10;98.20;;;;;;4973625;28;20112;-80
2022/06/15 10:15:57;;;;;;;6.57;2.15;;;22.90;98.30;;;;;;4989884;28;20117;-80
2022/06/15 10:18:35;;;;;;;7.72;1.58;;;22.80;98.80;;;;;;4989034;28;20062;-82
2022/06/15 10:21:06;;;;;;;4.95;1.70;;;22.90;99.90;;;;;;4989665;28;20427;-85
2022/06/15 10:23:41;;;;;;;10.20;2.28;;;23.20;99.20;;;;;;4973550;28;20142;-83
2022/06/15 10:26:08;;;;;;;;;;;23.30;98.40;;;;;;4989859;28;20050;-82
2022/06/15 10:28:37;;;;;;;4.07;1.95;;;23.40;99.20;;;;;;4973222;28;19929;-84
2022/06/15 10:31:11;;;;;;;5.20;1.40;;;23.60;99.00;;;;;;4989442;28;20046;-81
2022/06/15 10:33:48;;;;;;;4.47;1.43;;;23.80;98.60;;;;;;5004497;28;20056;-81
2022/06/15 10:36:30;;;;;;;4.70;1.90;;;24.10;98.30;;;;;;5032993;28;20824;-81
2022/06/15 10:39:12;;;;;;;4.32;1.83;;;24.30;99.40;;;;;;5051114;28;20102;-82
2022/06/15 10:41:49;;;;;;;10.68;1.98;;;24.30;99.20;;;;;;5050936;28;20373;-80
2022/06/15 10:44:37;;;;;;;6.95;2.00;;;24.00;98.80;;;;;;5050739;28;20455;-82
2022/06/15 10:47:49;;;;;;;5.97;1.63;;;23.70;96.90;;;;;;5050572;28;20714;-84
2022/06/15 10:50:51;;;;;;;5.47;1.33;;;23.40;97.60;;;;;;4988735;28;20090;-82
2022/06/15 10:53:45;;;;;;;5.70;1.45;;;23.20;98.10;;;;;;4934282;29;20069;-85
2022/06/15 11:02:45;;;;;;;7.22;1.27;;;22.90;98.50;;;;;;4934319;29;20051;-81
2022/06/15 11:05:17;;;;;;;5.30;1.55;;;22.40;99.00;;;;;;4949973;28;20078;-84
2022/06/15 11:07:46;;;;;;;9.07;1.67;;;22.40;99.00;;;;;;4949903;29;20080;-85
2022/06/15 11:10:35;;;;;;;9.95;2.15;;;22.40;99.00;;;;;;4950282;28;20055;-84
2022/06/15 11:13:21;;;;;;;6.00;1.52;;;22.20;99.40;;;;;;4933994;29;20112;-85
2022/06/15 11:18:38;;;;;;;13.07;2.03;;;22.50;99.90;;;;;;4950053;29;20110;-84
2022/06/15 11:21:12;;;;;;;5.85;1.40;;;22.90;99.90;;;;;;4932960;29;20566;-81
2022/06/15 11:23:57;;;;;;;7.35;1.50;;;23.30;99.90;;;;;;4949833;29;20574;-84
2022/06/15 11:26:55;;;;;;;3.45;1.20;;;23.60;98.60;;;;;;4991100;28;20575;-85
2022/06/15 11:29:52;;;;;;;8.73;1.85;;;23.80;99.80;;;;;;5001793;28;20484;-84
2022/06/15 11:32:38;;;;;;;6.63;1.83;;;24.30;99.50;;;;;;5032858;28;20439;-85
2022/06/15 11:35:25;;;;;;;17.58;2.00;;;24.40;97.90;;;;;;5050194;28;20496;-83
2022/06/15 11:38:06;;;;;;;7.45;1.80;;;24.50;98.10;;;;;;5050339;28;20041;-82
2022/06/15 11:40:38;;;;;;;4.55;1.27;;;24.60;98.00;;;;;;5032427;28;20615;-84
2022/06/15 11:43:17;;;;;;;8.23;1.65;;;24.90;98.50;;;;;;5050244;28;20095;-85
2022/06/15 11:46:03;;;;;;;22.25;2.45;;;24.90;97.40;;;;;;5032210;28;20258;-84
2022/06/15 11:48:35;;;;;;;7.53;1.50;;;24.70;97.60;;;;;;5048833;28;20099;-83
2022/06/15 11:51:22;;;;;;;9.48;1.95;;;24.90;98.20;;;;;;5050100;28;20123;-84
2022/06/15 11:54:15;;;;;;;5.00;1.30;;;24.80;97.50;;;;;;5050041;28;20052;-88
2022/06/15 11:56:53;;;;;;;5.47;1.40;;;25.10;97.20;;;;;;5050057;28;20049;-82
2022/06/15 11:59:36;;;;;;;6.28;1.40;;;25.30;97.10;;;;;;5050029;28;20072;-83
2022/06/15 12:02:24;;;;;;;26.75;3.40;;;25.50;96.70;;;;;;5032227;28;20435;-85
2022/06/15 12:05:22;;;;;;;4.40;1.30;;;25.60;96.70;;;;;;5049858;28;20045;-78
2022/06/15 12:08:00;;;;;;;3.20;1.13;;;25.70;94.90;;;;;;5049647;28;20401;-81
2022/06/15 12:10:31;;;;;;;4.60;1.40;;;25.60;95.90;;;;;;5049876;28;20036;-80
2022/06/15 12:12:59;;;;;;;3.25;1.30;;;25.20;95.00;;;;;;5032165;28;20072;-84
2022/06/15 12:15:45;;;;;;;6.57;1.60;;;24.90;95.50;;;;;;5032088;28;20056;-81
2022/06/15 12:18:13;;;;;;;6.35;1.55;;;24.90;95.90;;;;;;5031316;28;20582;-86
2022/06/15 12:20:53;;;;;;;4.78;1.70;;;25.10;95.80;;;;;;5049946;28;20033;-79
2022/06/15 12:23:56;;;;;;;4.97;1.83;;;25.40;95.40;;;;;;5031973;28;20055;-79
2022/06/15 12:26:26;;;;;;;7.30;2.03;;;25.40;95.10;;;;;;5032000;28;20369;-79
2022/06/15 12:29:25;;;;;;;5.47;1.40;;;25.60;95.60;;;;;;5049852;28;20134;-79
2022/06/15 12:35:17;;;;;;;8.27;2.50;;;26.20;97.10;;;;;;5035416;28;20368;-81
2022/06/15 12:38:01;;;;;;;7.28;2.25;;;25.80;95.30;;;;;;5035345;28;20049;-78
2022/06/15 12:41:04;;;;;;;6.40;2.42;;;25.50;95.00;;;;;;5035351;28;20076;-80
2022/06/15 12:43:38;;;;;;;13.25;2.20;;;25.40;95.10;;;;;;5027796;28;20061;-88
2022/06/15 12:46:16;;;;;;;5.35;2.40;;;25.30;95.20;;;;;;5035312;28;20518;-82
2022/06/15 12:48:45;;;;;;;6.75;2.17;;;25.40;94.90;;;;;;5052995;28;20140;-84
2022/06/15 12:51:23;;;;;;;4.65;2.05;;;25.30;95.20;;;;;;5053147;28;20052;-81
2022/06/15 12:54:02;;;;;;;6.57;2.28;;;25.30;95.00;;;;;;5018734;28;20139;-81
2022/06/15 12:56:51;;;;;;;5.10;2.08;;;25.00;94.80;;;;;;5052884;28;20044;-79
2022/06/15 12:59:46;;;;;;;4.75;2.30;;;24.70;94.90;;;;;;5043428;28;20056;-81
2022/06/15 13:02:49;;;;;;;;;;;24.70;94.20;;;;;;5053359;28;20053;-83
2022/06/15 13:05:26;;;;;;;6.32;2.55;;;25.00;95.40;;;;;;4990714;28;20384;-80
2022/06/15 13:08:22;;;;;;;4.72;1.90;;;24.90;94.70;;;;;;4974989;28;20493;-82
2022/06/15 13:10:53;;;;;;;8.43;2.22;;;24.90;95.20;;;;;;4990904;28;20069;-81
2022/06/15 13:13:36;;;;;;;6.85;2.17;;;24.80;94.50;;;;;;4991128;28;20505;-80
2022/06/15 13:16:09;;;;;;;5.10;1.80;;;24.60;94.60;;;;;;4990881;28;20054;-79
2022/06/15 13:18:52;;;;;;;4.30;1.98;;;24.80;95.00;;;;;;4974428;28;20517;-79
2022/06/15 13:21:20;;;;;;;7.00;2.37;;;24.90;94.30;;;;;;4974888;28;20050;-81
2022/06/15 13:24:05;;;;;;;7.10;2.85;;;25.00;94.80;;;;;;4990568;28;20058;-80
2022/06/15 13:26:41;;;;;;;5.97;2.33;;;25.00;94.50;;;;;;4990617;28;20046;-79
2022/06/15 13:29:10;;;;;;;9.32;2.55;;;25.20;95.00;;;;;;4990560;28;20064;-80
2022/06/15 13:31:54;;;;;;;6.68;2.13;;;25.30;94.80;;;;;;4974243;28;20137;-83
2022/06/15 13:34:34;;;;;;;8.20;2.13;;;25.40;94.10;;;;;;4990678;28;20129;-80
2022/06/15 13:37:26;;;;;;;7.10;2.28;;;25.40;93.80;;;;;;5011445;28;20053;-81